Time;durP1;ratioP1;P1;durP2;ratioP2;P2;SDS_P1;SDS_P2;PMS_P1;PMS_P2;Temp;Humidity;BMP_temperature;BMP_pressure;BME280_temperature;BME280_humidity;BME280_pressure;Samples;Min_cycle;Max_cycle;Signal;HPM_P1;HPM_P2
2021/06/21 00:00:53;;;;;;;19.45;15.75;;;;;;;23.04;nan;100761.97;5066523;28;20115;-46
2021/06/21 00:03:18;;;;;;;22.38;15.52;;;;;;;23.05;nan;100758.91;5062988;28;20024;-47
2021/06/21 00:05:44;;;;;;;17.35;13.82;;;;;;;23.02;nan;100759.56;5064047;28;20029;-46
2021/06/21 00:08:09;;;;;;;18.17;13.27;;;;;;;22.96;nan;100760.88;5063911;28;20024;-48
2021/06/21 00:10:35;;;;;;;20.77;14.15;;;;;;;22.92;nan;100760.75;5065597;28;20031;-46
2021/06/21 00:13:00;;;;;;;16.52;13.40;;;;;;;22.96;nan;100754.63;5077093;28;20073;-46
2021/06/21 00:15:27;;;;;;;18.08;13.88;;;;;;;22.95;nan;100756.56;5068289;28;20029;-47
2021/06/21 00:17:54;;;;;;;15.60;12.82;;;;;;;22.87;nan;100757.41;5063042;28;20048;-46
2021/06/21 00:20:21;;;;;;;22.02;13.52;;;;;;;22.90;nan;100756.75;5066957;28;20031;-46
2021/06/21 00:22:48;;;;;;;18.30;13.38;;;;;;;22.81;nan;100753.25;5062289;28;20020;-46
2021/06/21 00:25:15;;;;;;;23.40;13.85;;;;;;;22.84;nan;100752.63;5061978;28;20114;-46
2021/06/21 00:27:41;;;;;;;16.17;12.60;;;;;;;22.81;nan;100751.31;5068207;28;20035;-47
2021/06/21 00:30:10;;;;;;;21.00;14.15;;;;;;;22.73;nan;100748.63;5067905;28;20123;-47
2021/06/21 00:32:36;;;;;;;19.40;14.18;;;;;;;22.69;nan;100751.22;5062411;28;20032;-46
2021/06/21 00:35:02;;;;;;;17.35;11.65;;;;;;;22.73;nan;100752.16;5063268;28;20173;-47
2021/06/21 00:37:27;;;;;;;15.82;11.13;;;;;;;22.70;nan;100744.63;5061009;28;20107;-46
2021/06/21 00:39:53;;;;;;;18.35;12.57;;;;;;;22.72;nan;100747.81;5059946;28;20080;-47
2021/06/21 00:42:19;;;;;;;14.50;11.68;;;;;;;22.67;nan;100745.28;5062229;28;20032;-46
2021/06/21 00:44:46;;;;;;;25.38;13.45;;;;;;;22.71;nan;100748.16;5064700;28;20035;-46
2021/06/21 00:47:13;;;;;;;20.70;13.60;;;;;;;22.63;nan;100757.19;5065910;28;20031;-46
2021/06/21 00:49:40;;;;;;;16.83;12.98;;;;;;;22.57;nan;100754.63;5061032;28;20059;-47
2021/06/21 00:52:10;;;;;;;19.88;14.05;;;;;;;22.56;nan;100750.31;5063701;28;20027;-47
2021/06/21 00:54:37;;;;;;;19.33;14.05;;;;;;;22.54;nan;100741.66;5063085;28;20020;-46
2021/06/21 00:57:03;;;;;;;20.17;13.70;;;;;;;22.52;nan;100743.91;5066729;28;20287;-46
2021/06/21 00:59:28;;;;;;;16.73;13.27;;;;;;;22.45;nan;100735.44;5062341;28;20151;-46
2021/06/21 01:01:54;;;;;;;19.40;14.10;;;;;;;22.44;nan;100725.66;5060804;28;20025;-47
2021/06/21 01:04:19;;;;;;;18.80;13.85;;;;;;;22.42;nan;100716.16;5065184;28;20031;-47
2021/06/21 01:06:45;;;;;;;19.10;12.52;;;;;;;22.40;nan;100710.22;5064132;28;20406;-47
2021/06/21 01:09:10;;;;;;;18.98;13.30;;;;;;;22.35;nan;100702.22;5063727;28;20028;-47
2021/06/21 01:11:45;;;;;;;18.63;12.38;;;;;;;22.23;nan;100702.91;5062160;28;20071;-48
2021/06/21 01:14:17;;;;;;;;;;;;;;;22.12;nan;100697.03;5064812;28;20028;-48
2021/06/21 01:17:05;;;;;;;18.20;12.82;;;;;;;22.19;nan;100693.78;5063293;28;19913;-47
2021/06/21 01:19:40;;;;;;;19.38;12.40;;;;;;;22.16;nan;100692.53;5054213;28;21203;-47
2021/06/21 01:22:43;;;;;;;18.42;11.13;;;;;;;22.06;nan;100694.78;5065992;28;20110;-47
2021/06/21 01:25:34;;;;;;;15.75;10.85;;;;;;;21.99;nan;100678.91;5062662;28;20024;-47
2021/06/21 01:28:21;;;;;;;14.85;11.52;;;;;;;21.93;nan;100670.09;5059125;28;20129;-48
2021/06/21 01:30:52;;;;;;;16.63;11.30;;;;;;;21.89;nan;100681.97;5062354;28;20025;-46
2021/06/21 01:33:20;;;;;;;21.50;11.88;;;;;;;21.92;nan;100676.69;5065968;28;20183;-47
2021/06/21 01:35:53;;;;;;;14.20;10.93;;;;;;;21.92;nan;100682.16;5066236;28;20489;-47
2021/06/21 01:38:42;;;;;;;16.58;11.30;;;;;;;21.68;nan;100681.88;5061124;28;20485;-47
2021/06/21 01:41:26;;;;;;;18.33;10.70;;;;;;;21.70;nan;100682.34;5065986;28;20016;-48
2021/06/21 01:43:54;;;;;;;12.02;9.88;;;;;;;21.77;nan;100682.66;5059596;28;20225;-47
2021/06/21 01:46:23;;;;;;;15.85;10.95;;;;;;;21.82;nan;100689.88;5071497;28;20024;-48
2021/06/21 01:48:52;;;;;;;15.82;10.35;;;;;;;21.70;nan;100695.97;5061121;28;20027;-49
2021/06/21 01:51:21;;;;;;;14.57;10.45;;;;;;;21.73;nan;100698.09;5059930;28;20059;-49
2021/06/21 01:53:48;;;;;;;12.70;9.85;;;;;;;21.70;nan;100691.31;5067574;28;20021;-46
2021/06/21 01:56:27;;;;;;;12.57;9.57;;;;;;;21.66;nan;100686.84;5068824;28;20111;-47
2021/06/21 01:58:54;;;;;;;12.68;8.98;;;;;;;21.65;nan;100696.97;5062105;28;20605;-47
2021/06/21 02:01:20;;;;;;;17.77;10.85;;;;;;;21.63;nan;100695.69;5061290;28;20028;-46
2021/06/21 02:03:51;;;;;;;15.50;9.60;;;;;;;21.67;nan;100699.34;5061519;28;20486;-47
2021/06/21 02:06:18;;;;;;;14.18;10.10;;;;;;;21.63;nan;100698.41;5065109;28;20047;-46
2021/06/21 02:08:48;;;;;;;14.63;9.98;;;;;;;21.67;nan;100688.44;5063466;28;20052;-47
2021/06/21 02:11:14;;;;;;;11.95;9.63;;;;;;;21.66;nan;100695.03;5063020;28;20032;-47
2021/06/21 02:13:42;;;;;;;13.57;10.75;;;;;;;21.63;nan;100706.59;5061627;28;20029;-47
2021/06/21 02:16:09;;;;;;;11.43;10.05;;;;;;;21.54;nan;100709.31;5061944;28;20500;-47
2021/06/21 02:18:36;;;;;;;13.85;9.85;;;;;;;21.52;nan;100736.09;5060449;28;20039;-46
2021/06/21 02:21:03;;;;;;;14.82;11.07;;;;;;;21.50;nan;100745.72;5061924;28;20528;-46
2021/06/21 02:23:29;;;;;;;12.90;10.50;;;;;;;21.53;nan;100755.97;5063296;28;20032;-46
2021/06/21 02:25:57;;;;;;;15.77;11.77;;;;;;;21.50;nan;100760.16;5061368;28;20030;-46
2021/06/21 02:28:24;;;;;;;12.73;10.38;;;;;;;21.51;nan;100758.22;5060652;28;20012;-47
2021/06/21 02:30:51;;;;;;;15.65;10.90;;;;;;;21.51;nan;100767.19;5065875;28;20058;-46
2021/06/21 02:33:18;;;;;;;18.27;11.18;;;;;;;21.51;nan;100763.69;5063319;28;20036;-46
2021/06/21 02:35:45;;;;;;;16.92;11.63;;;;;;;21.52;nan;100765.28;5056715;28;20021;-46
2021/06/21 02:38:11;;;;;;;21.00;12.35;;;;;;;21.50;nan;100765.59;5059109;28;20073;-46
2021/06/21 02:40:36;;;;;;;17.42;12.75;;;;;;;21.45;nan;100760.31;5061112;28;20043;-46
2021/06/21 02:43:03;;;;;;;19.65;12.20;;;;;;;21.48;nan;100756.94;5064294;28;20032;-47
2021/06/21 02:45:29;;;;;;;23.30;13.00;;;;;;;21.46;nan;100755.66;5060259;28;20418;-46
2021/06/21 02:47:55;;;;;;;19.52;12.63;;;;;;;21.38;nan;100747.19;5058648;28;20017;-46
2021/06/21 02:50:22;;;;;;;17.40;12.65;;;;;;;21.41;nan;100746.53;5059723;28;20085;-48
2021/06/21 02:53:08;;;;;;;19.80;13.27;;;;;;;21.27;nan;100745.88;5060248;28;20032;-45
2021/06/21 02:55:49;;;;;;;19.73;12.93;;;;;;;21.34;nan;100740.75;5061033;28;20092;-48
2021/06/21 02:58:40;;;;;;;18.50;12.60;;;;;;;21.39;nan;100746.06;5063244;28;20094;-46
2021/06/21 03:01:09;;;;;;;16.85;12.35;;;;;;;21.49;nan;100750.38;5060162;28;20371;-46
2021/06/21 03:03:38;;;;;;;18.73;12.38;;;;;;;21.52;nan;100748.91;5063016;28;20033;-46
2021/06/21 03:06:06;;;;;;;20.98;12.38;;;;;;;21.58;nan;100751.19;5062978;28;20654;-47
2021/06/21 03:08:33;;;;;;;15.18;12.13;;;;;;;21.62;nan;100746.69;5062048;28;20056;-46
2021/06/21 03:10:59;;;;;;;16.40;11.63;;;;;;;21.52;nan;100740.75;5068973;28;20394;-47
2021/06/21 03:13:27;;;;;;;16.38;11.48;;;;;;;21.63;nan;100737.38;5064773;28;20387;-47
2021/06/21 03:15:55;;;;;;;16.90;11.88;;;;;;;21.68;nan;100734.47;5060211;28;20031;-47
2021/06/21 03:18:21;;;;;;;16.70;11.73;;;;;;;21.81;nan;100729.19;5063090;28;20048;-46
2021/06/21 03:20:55;;;;;;;17.77;10.63;;;;;;;21.85;nan;100721.94;5062018;28;20490;-46
2021/06/21 03:23:25;;;;;;;17.67;10.43;;;;;;;21.93;nan;100708.28;5061291;28;20556;-47
2021/06/21 03:25:55;;;;;;;15.73;11.30;;;;;;;21.83;nan;100700.44;5058521;28;20037;-47
2021/06/21 03:28:22;;;;;;;16.92;11.10;;;;;;;21.88;nan;100692.09;5059593;28;20024;-47
2021/06/21 03:30:52;;;;;;;14.20;10.90;;;;;;;21.82;nan;100685.22;5060321;28;20112;-47
2021/06/21 03:33:18;;;;;;;16.00;10.63;;;;;;;21.73;nan;100670.81;5065729;28;20040;-47
2021/06/21 03:35:44;;;;;;;15.63;11.77;;;;;;;21.67;nan;100672.88;5059289;28;20032;-46
2021/06/21 03:38:10;;;;;;;17.42;10.90;;;;;;;21.78;nan;100658.91;5063293;28;20735;-46
2021/06/21 03:40:36;;;;;;;18.13;11.55;;;;;;;21.71;nan;100653.94;5057235;28;20028;-46
2021/06/21 03:43:02;;;;;;;15.32;11.05;;;;;;;21.76;nan;100653.78;5061282;28;20031;-46
2021/06/21 03:45:27;;;;;;;19.42;11.00;;;;;;;21.81;nan;100650.88;5080442;28;20024;-47
2021/06/21 03:47:53;;;;;;;19.95;10.93;;;;;;;21.86;nan;100650.69;5059540;28;20039;-46
2021/06/21 03:50:18;;;;;;;15.07;10.57;;;;;;;21.94;nan;100660.78;5061433;28;20651;-46
2021/06/21 03:52:44;;;;;;;15.07;10.93;;;;;;;21.91;nan;100664.19;5061197;28;20055;-46
2021/06/21 03:55:10;;;;;;;14.15;10.25;;;;;;;22.09;nan;100669.59;5062195;28;20020;-47
2021/06/21 03:57:45;;;;;;;15.40;11.20;;;;;;;22.07;nan;100664.44;5062298;28;20024;-47
2021/06/21 04:00:16;;;;;;;13.13;10.85;;;;;;;22.02;nan;100670.88;5064206;28;20188;-48
2021/06/21 04:02:42;;;;;;;11.93;10.32;;;;;;;22.23;nan;100664.72;5058218;28;20273;-46
2021/06/21 04:05:08;;;;;;;14.73;10.23;;;;;;;22.36;nan;100660.97;5057272;28;20516;-46
2021/06/21 04:07:34;;;;;;;15.02;10.82;;;;;;;22.43;nan;100661.22;5058336;28;20025;-48
2021/06/21 04:10:00;;;;;;;17.50;11.05;;;;;;;22.42;nan;100653.38;5059000;28;21015;-46
2021/06/21 04:12:26;;;;;;;15.85;11.75;;;;;;;22.30;nan;100649.44;5063336;28;20024;-46
2021/06/21 04:14:52;;;;;;;18.00;11.48;;;;;;;22.29;nan;100653.31;5061481;28;20397;-46
2021/06/21 04:17:18;;;;;;;13.57;10.93;;;;;;;22.29;nan;100653.31;5060413;28;20023;-46
2021/06/21 04:19:44;;;;;;;15.45;10.85;;;;;;;22.27;nan;100663.75;5058985;28;20044;-47
2021/06/21 04:22:10;;;;;;;15.05;11.02;;;;;;;22.35;nan;100651.19;5064907;28;20123;-46
2021/06/21 04:24:35;;;;;;;15.02;11.25;;;;;;;22.44;nan;100649.22;5061773;28;20369;-46
2021/06/21 04:27:01;;;;;;;15.98;12.32;;;;;;;;;;5063236;28;20450;-47
2021/06/21 04:29:26;;;;;;;18.17;11.05;;;;;;;22.44;nan;100649.22;5063074;28;20029;-47
2021/06/21 04:31:52;;;;;;;13.65;11.25;;;;;;;22.57;nan;100645.41;5062190;28;20128;-47
2021/06/21 04:34:18;;;;;;;16.40;11.40;;;;;;;22.48;nan;100639.22;5061716;28;20035;-46
2021/06/21 04:36:43;;;;;;;20.33;11.90;;;;;;;22.60;nan;100642.03;5064429;28;20525;-46
2021/06/21 04:39:09;;;;;;;15.60;11.30;;;;;;;22.66;nan;100634.44;5066383;28;20032;-48
2021/06/21 04:41:34;;;;;;;14.23;11.48;;;;;;;22.85;nan;100655.88;5062538;28;20512;-46
2021/06/21 04:44:00;;;;;;;16.52;11.65;;;;;;;22.87;nan;100662.59;5065718;28;20075;-46
2021/06/21 04:46:26;;;;;;;17.10;12.32;;;;;;;23.12;nan;100671.72;5064171;28;20543;-46
2021/06/21 04:48:52;;;;;;;16.70;12.55;;;;;;;23.35;nan;100682.31;5061814;28;20024;-46
2021/06/21 04:51:20;;;;;;;20.67;12.65;;;;;;;23.48;nan;100662.88;5064303;28;20055;-46
2021/06/21 04:53:47;;;;;;;13.82;10.43;;;;;;;23.63;nan;100655.22;5061698;28;20046;-47
2021/06/21 04:56:13;;;;;;;19.83;11.45;;;;;;;23.87;nan;100673.59;5063934;28;20028;-47
2021/06/21 04:58:38;;;;;;;17.17;11.73;;;;;;;24.06;nan;100660.19;5063266;28;21269;-46
2021/06/21 05:01:04;;;;;;;19.83;11.65;;;;;;;24.27;nan;100669.09;5068647;28;20024;-47
2021/06/21 05:03:29;;;;;;;13.55;11.52;;;;;;;24.52;nan;100658.16;5061540;28;20739;-47
2021/06/21 05:05:55;;;;;;;15.40;10.43;;;;;;;24.64;nan;100663.63;5068699;28;20058;-46
2021/06/21 05:08:20;;;;;;;13.93;10.60;;;;;;;24.46;nan;100660.34;5073993;28;20440;-47
2021/06/21 05:10:46;;;;;;;14.07;10.95;;;;;;;24.47;nan;100655.66;5065206;28;20544;-46
2021/06/21 05:13:11;;;;;;;17.17;11.60;;;;;;;24.40;nan;100665.22;5070705;28;20058;-47
2021/06/21 05:15:37;;;;;;;18.10;10.82;;;;;;;24.19;nan;100653.56;5064288;28;20071;-47
2021/06/21 05:18:02;;;;;;;13.27;10.80;;;;;;;24.51;nan;100648.34;5066440;28;20134;-47
2021/06/21 05:20:28;;;;;;;16.27;11.05;;;;;;;24.60;nan;100652.56;5064447;28;20085;-47
2021/06/21 05:22:54;;;;;;;12.35;10.05;;;;;;;24.75;nan;100642.81;5063363;28;20115;-48
2021/06/21 05:25:19;;;;;;;18.42;11.10;;;;;;;24.91;nan;100653.84;5063301;28;20327;-47
2021/06/21 05:27:46;;;;;;;14.70;11.60;;;;;;;25.08;nan;100650.06;5059908;28;20395;-47
2021/06/21 05:30:12;;;;;;;17.67;10.93;;;;;;;25.30;nan;100650.31;5055202;28;20024;-46
2021/06/21 05:32:38;;;;;;;13.18;11.13;;;;;;;25.48;nan;100648.06;5058252;28;20112;-47
2021/06/21 05:35:07;;;;;;;14.88;11.65;;;;;;;25.53;nan;100650.56;5056155;28;20191;-46
2021/06/21 05:37:33;;;;;;;17.75;12.85;;;;;;;25.59;nan;100649.16;5063103;28;20140;-46
2021/06/21 05:39:58;;;;;;;12.45;11.15;;;;;;;25.72;nan;100644.44;5063612;28;20420;-48
2021/06/21 05:42:24;;;;;;;18.13;12.52;;;;;;;25.87;nan;100649.13;5063140;28;20222;-47
2021/06/21 05:44:50;;;;;;;14.45;10.75;;;;;;;25.95;nan;100627.34;5058967;28;20024;-51
2021/06/21 05:47:15;;;;;;;13.13;10.68;;;;;;;25.98;nan;100626.63;5057571;28;20025;-53
2021/06/21 05:49:42;;;;;;;13.55;9.85;;;;;;;26.02;nan;100606.34;5064795;28;20027;-47
2021/06/21 05:52:07;;;;;;;14.80;10.68;;;;;;;26.05;nan;100611.16;5060252;28;20345;-47
2021/06/21 05:54:34;;;;;;;15.40;10.90;;;;;;;26.06;nan;100607.25;5064196;28;20141;-48
2021/06/21 05:56:59;;;;;;;12.98;11.27;;;;;;;25.97;nan;100606.63;5062112;28;20160;-50
2021/06/21 05:59:25;;;;;;;13.48;10.40;;;;;;;26.02;nan;100600.84;5068468;28;20031;-51
2021/06/21 06:01:50;;;;;;;12.82;11.55;;;;;;;26.12;nan;100597.56;5065202;28;20082;-49
2021/06/21 06:04:16;;;;;;;15.40;12.20;;;;;;;26.21;nan;100594.63;5064578;28;20132;-48
2021/06/21 06:06:41;;;;;;;15.07;11.80;;;;;;;26.30;nan;100584.25;5060559;28;20032;-51
2021/06/21 06:09:07;;;;;;;17.48;11.77;;;;;;;26.22;nan;100592.69;5062587;28;20032;-48
2021/06/21 06:11:32;;;;;;;13.98;11.70;;;;;;;26.32;nan;100583.91;5058072;28;20070;-49
2021/06/21 06:13:58;;;;;;;14.45;11.32;;;;;;;26.32;nan;100592.13;5065890;28;20025;-47
2021/06/21 06:16:23;;;;;;;14.60;11.35;;;;;;;26.39;nan;100592.31;5056469;28;20028;-51
2021/06/21 06:18:49;;;;;;;13.80;11.50;;;;;;;26.22;nan;100581.72;5064341;28;20024;-50
2021/06/21 06:21:17;;;;;;;16.00;12.35;;;;;;;26.19;nan;100589.50;5063855;28;20347;-49
2021/06/21 06:23:43;;;;;;;15.30;12.30;;;;;;;26.19;nan;100583.22;5062284;28;20073;-48
2021/06/21 06:26:08;;;;;;;15.63;12.15;;;;;;;26.32;nan;100586.63;5067604;28;20398;-49
2021/06/21 06:28:35;;;;;;;14.25;12.32;;;;;;;26.33;nan;100583.53;5067001;28;20029;-48
2021/06/21 06:31:00;;;;;;;14.82;12.07;;;;;;;26.25;nan;100592.78;5065945;28;20104;-48
2021/06/21 06:33:26;;;;;;;14.77;11.85;;;;;;;26.17;nan;100580.81;5059352;28;20107;-48
2021/06/21 06:35:51;;;;;;;15.52;12.10;;;;;;;26.11;nan;100578.72;5069280;28;20027;-50
2021/06/21 06:38:17;;;;;;;15.48;12.20;;;;;;;26.02;nan;100587.13;5065068;28;20025;-52
2021/06/21 06:40:42;;;;;;;16.70;13.02;;;;;;;26.09;nan;100576.31;5066441;28;20023;-49
2021/06/21 06:43:08;;;;;;;16.02;12.60;;;;;;;26.23;nan;100583.31;5068610;28;20021;-47
2021/06/21 06:45:33;;;;;;;15.13;12.27;;;;;;;26.23;nan;100581.34;5070687;28;20067;-49
2021/06/21 06:48:00;;;;;;;17.77;13.10;;;;;;;26.20;nan;100577.34;5072134;28;20115;-48
2021/06/21 06:50:25;;;;;;;16.30;13.25;;;;;;;26.23;nan;100575.06;5064211;28;20071;-48
2021/06/21 06:52:51;;;;;;;18.27;13.00;;;;;;;26.25;nan;100579.06;5069572;28;20055;-49
2021/06/21 06:58:01;;;;;;;15.57;13.10;;;;;;;26.59;nan;100574.72;5062732;28;20322;-47
2021/06/21 07:00:27;;;;;;;14.70;13.18;;;;;;;26.78;nan;100569.25;5066559;28;20454;-48
2021/06/21 07:02:52;;;;;;;15.30;13.13;;;;;;;26.57;nan;100570.72;5068126;28;20378;-49
2021/06/21 07:05:18;;;;;;;17.35;13.80;;;;;;;26.74;nan;100581.28;5068296;28;20024;-51
2021/06/21 07:07:43;;;;;;;17.17;13.95;;;;;;;26.99;nan;100579.84;5060784;28;20099;-48
2021/06/21 07:10:09;;;;;;;16.95;15.25;;;;;;;27.07;nan;100591.81;5062601;28;20526;-47
2021/06/21 07:12:35;;;;;;;27.30;15.70;;;;;;;27.12;nan;100586.03;5058072;28;20021;-48
2021/06/21 07:15:00;;;;;;;19.98;14.55;;;;;;;27.43;nan;100584.22;5064590;28;20112;-50
2021/06/21 07:17:26;;;;;;;18.60;15.15;;;;;;;27.68;nan;100582.75;5070488;28;20577;-48
2021/06/21 07:19:51;;;;;;;19.38;15.82;;;;;;;27.79;nan;100580.16;5067869;28;20025;-48
2021/06/21 07:22:17;;;;;;;15.45;13.85;;;;;;;28.06;nan;100575.47;5063838;28;172374;-51
2021/06/21 07:24:42;;;;;;;18.08;15.07;;;;;;;28.29;nan;100570.72;5069687;28;20407;-51
2021/06/21 07:27:08;;;;;;;18.83;15.25;;;;;;;28.54;nan;100566.34;5071954;28;20024;-47
2021/06/21 07:29:35;;;;;;;18.30;15.02;;;;;;;28.43;nan;100568.19;5068527;28;20194;-47
2021/06/21 07:32:00;;;;;;;17.60;15.75;;;;;;;28.68;nan;100565.72;5065416;28;20017;-48
2021/06/21 07:34:26;;;;;;;17.17;14.73;;;;;;;28.83;nan;100564.75;5070083;28;20028;-49
2021/06/21 07:36:52;;;;;;;18.23;16.20;;;;;;;28.87;nan;100565.59;5065375;28;20470;-48
2021/06/21 07:39:17;;;;;;;17.08;14.48;;;;;;;28.96;nan;100565.31;5068346;28;20070;-53
2021/06/21 07:41:43;;;;;;;18.55;15.05;;;;;;;29.21;nan;100570.28;5069540;28;20043;-49
2021/06/21 07:44:08;;;;;;;17.75;15.85;;;;;;;29.40;nan;100565.38;5071403;28;20104;-48
2021/06/21 07:46:34;;;;;;;19.35;16.88;;;;;;;29.50;nan;100572.19;5068097;28;20028;-52
2021/06/21 07:48:59;;;;;;;19.50;15.80;;;;;;;29.67;nan;100568.81;5062479;28;20493;-47
2021/06/21 07:51:25;;;;;;;18.17;16.13;;;;;;;29.66;nan;100572.75;5073195;28;20032;-50
2021/06/21 07:53:53;;;;;;;17.63;15.73;;;;;;;29.87;nan;100569.34;5069737;28;20028;-50
2021/06/21 07:56:19;;;;;;;19.65;15.88;;;;;;;30.02;nan;100570.25;5071479;28;20092;-50
2021/06/21 07:58:45;;;;;;;18.33;16.05;;;;;;;30.51;nan;100574.50;5073990;28;20028;-49
2021/06/21 08:01:14;;;;;;;18.08;16.15;;;;;;;30.68;nan;100571.84;5076483;28;20370;-52
2021/06/21 08:03:41;;;;;;;19.00;16.35;;;;;;;30.79;nan;100574.66;5068185;28;20039;-50
2021/06/21 08:06:11;;;;;;;17.23;15.27;;;;;;;31.04;nan;100585.00;5068593;28;20025;-49
2021/06/21 08:08:40;;;;;;;17.35;15.30;;;;;;;30.82;nan;100601.53;5071846;28;20063;-48
2021/06/21 08:11:06;;;;;;;20.42;16.83;;;;;;;30.43;nan;100600.53;5065245;28;20020;-47
2021/06/21 08:13:32;;;;;;;21.98;17.58;;;;;;;31.11;nan;100590.56;5072712;28;20036;-48
2021/06/21 08:15:57;;;;;;;23.60;18.13;;;;;;;30.37;nan;100592.59;5073566;28;20467;-51
2021/06/21 08:18:23;;;;;;;19.48;15.88;;;;;;;31.07;nan;100595.31;5070948;28;20052;-48
2021/06/21 08:20:49;;;;;;;18.67;16.05;;;;;;;30.63;nan;100599.06;5072106;28;20020;-49
2021/06/21 08:23:16;;;;;;;19.30;16.98;;;;;;;30.47;nan;100598.56;5066744;28;20025;-50
2021/06/21 08:25:43;;;;;;;19.38;16.20;;;;;;;30.52;nan;100598.19;5068407;28;20517;-48
2021/06/21 08:28:09;;;;;;;19.98;16.92;;;;;;;30.62;nan;100603.81;5074660;28;20224;-47
2021/06/21 08:30:35;;;;;;;20.42;16.80;;;;;;;30.66;nan;100606.59;5075649;28;20028;-49
2021/06/21 08:33:00;;;;;;;20.45;16.13;;;;;;;30.64;nan;100612.50;5073756;28;20024;-48
2021/06/21 08:35:27;;;;;;;18.30;16.30;;;;;;;30.42;nan;100613.56;5073502;28;20554;-49
2021/06/21 08:37:53;;;;;;;19.15;16.08;;;;;;;30.79;nan;100607.84;5070404;28;20466;-48
2021/06/21 08:40:21;;;;;;;18.25;16.17;;;;;;;30.29;nan;100606.75;5074009;28;20036;-49
2021/06/21 08:42:47;;;;;;;17.08;15.00;;;;;;;30.43;nan;100617.91;5073275;28;20024;-49
2021/06/21 08:45:13;;;;;;;20.80;16.35;;;;;;;29.99;nan;100617.97;5067243;28;20025;-52
2021/06/21 08:47:39;;;;;;;19.45;15.98;;;;;;;29.74;nan;100610.25;5067019;28;20059;-50
2021/06/21 08:50:10;;;;;;;16.52;14.90;;;;;;;29.73;nan;100614.19;5072135;28;20020;-48
2021/06/21 08:52:36;;;;;;;21.58;15.48;;;;;;;30.23;nan;100611.06;5070236;28;20180;-49
2021/06/21 08:55:04;;;;;;;18.05;14.88;;;;;;;30.19;nan;100613.81;5073489;28;20024;-50
2021/06/21 08:57:36;;;;;;;15.25;13.63;;;;;;;30.02;nan;100608.91;5072546;28;20065;-49
2021/06/21 09:00:08;;;;;;;18.40;15.52;;;;;;;29.57;nan;100616.41;5073204;28;20032;-48
2021/06/21 09:02:34;;;;;;;20.17;15.38;;;;;;;30.02;nan;100609.72;5072046;28;20494;-48
2021/06/21 09:05:00;;;;;;;19.67;15.60;;;;;;;30.19;nan;100613.81;5072597;28;20059;-47
2021/06/21 09:07:27;;;;;;;16.75;15.00;;;;;;;29.90;nan;100611.97;5067646;28;20024;-49
2021/06/21 09:09:55;;;;;;;18.38;15.07;;;;;;;30.40;nan;100615.13;5074369;28;20024;-48
2021/06/21 09:12:32;;;;;;;16.67;15.05;;;;;;;30.85;nan;100609.03;5071769;28;20119;-49
2021/06/21 09:14:59;;;;;;;21.00;15.63;;;;;;;30.98;nan;100599.22;5068723;28;20432;-50
2021/06/21 09:17:29;;;;;;;20.70;15.52;;;;;;;31.12;nan;100592.16;5065351;28;20467;-47
2021/06/21 09:20:00;;;;;;;18.98;16.13;;;;;;;31.21;nan;100593.38;5065070;28;20020;-48
2021/06/21 09:22:37;;;;;;;18.75;15.55;;;;;;;31.45;nan;100593.84;5068079;28;20016;-48
2021/06/21 09:25:20;;;;;;;18.17;16.23;;;;;;;31.50;nan;100590.66;5065789;28;20023;-48
2021/06/21 09:28:12;;;;;;;21.40;17.00;;;;;;;31.44;nan;100587.50;5066979;28;20032;-48
2021/06/21 09:30:51;;;;;;;22.45;16.60;;;;;;;31.58;nan;100593.03;5058734;28;20041;-50
2021/06/21 09:33:29;;;;;;;20.65;17.33;;;;;;;30.94;nan;100595.66;5072106;28;20029;-49
2021/06/21 09:35:55;;;;;;;18.98;17.00;;;;;;;31.10;nan;100592.53;5066723;28;20424;-52
2021/06/21 09:38:21;;;;;;;18.38;16.38;;;;;;;31.60;nan;100591.84;5065188;28;20020;-48
2021/06/21 09:40:53;;;;;;;17.27;14.52;;;;;;;31.73;nan;100593.88;5069130;28;20112;-48
2021/06/21 09:43:23;;;;;;;18.75;13.32;;;;;;;31.01;nan;100594.88;5072438;28;20035;-51
2021/06/21 09:46:13;;;;;;;16.83;14.65;;;;;;;30.56;nan;100579.66;5071302;28;20032;-47
2021/06/21 09:48:41;;;;;;;16.38;14.80;;;;;;;30.79;nan;100588.50;5066794;28;20032;-47
2021/06/21 09:51:38;;;;;;;18.08;12.45;;;;;;;30.89;nan;100596.03;5069914;28;20032;-48
2021/06/21 09:54:07;;;;;;;15.95;12.65;;;;;;;31.30;nan;100590.25;5061924;28;20029;-48
2021/06/21 09:56:50;;;;;;;15.65;13.65;;;;;;;31.05;nan;100581.06;5062827;28;20059;-49
2021/06/21 09:59:18;;;;;;;15.07;12.50;;;;;;;31.25;nan;100588.66;5066426;28;20047;-48
2021/06/21 10:01:44;;;;;;;15.52;11.85;;;;;;;31.16;nan;100590.19;5061527;28;20036;-51
2021/06/21 10:04:27;;;;;;;15.05;12.70;;;;;;;31.79;nan;100585.97;5062519;28;20463;-50
2021/06/21 10:06:53;;;;;;;14.60;12.40;;;;;;;31.80;nan;100591.13;5059736;28;20050;-48
2021/06/21 10:09:19;;;;;;;13.77;11.90;;;;;;;32.08;nan;100586.72;5053474;28;20028;-51
2021/06/21 10:11:46;;;;;;;14.50;11.55;;;;;;;32.35;nan;100582.34;5051223;28;20039;-48
2021/06/21 10:14:14;;;;;;;12.43;10.05;;;;;;;31.60;nan;100587.13;5052082;28;20170;-52
2021/06/21 10:16:41;;;;;;;11.13;8.60;;;;;;;31.72;nan;100591.47;5054084;28;20032;-51
2021/06/21 10:19:07;;;;;;;12.25;8.75;;;;;;;32.22;nan;100588.69;5053409;28;20047;-52
2021/06/21 10:21:35;;;;;;;13.18;8.90;;;;;;;32.67;nan;100584.19;5062732;28;20032;-49
2021/06/21 10:24:00;;;;;;;12.18;8.00;;;;;;;32.63;nan;100587.00;5056070;28;20525;-52
2021/06/21 10:26:26;;;;;;;13.55;9.65;;;;;;;32.30;nan;100593.03;5059549;28;20131;-48
2021/06/21 10:28:53;;;;;;;11.93;9.82;;;;;;;31.77;nan;100594.66;5059999;28;20518;-52
2021/06/21 10:31:24;;;;;;;13.88;8.90;;;;;;;31.69;nan;100601.34;5062073;28;20063;-49
2021/06/21 10:33:50;;;;;;;11.40;8.13;;;;;;;32.08;nan;100597.81;5060482;28;20474;-48
2021/06/21 10:36:16;;;;;;;10.30;8.10;;;;;;;32.33;nan;100597.81;5062804;28;20025;-48
2021/06/21 10:38:42;;;;;;;10.43;7.93;;;;;;;32.41;nan;100610.44;5061217;28;20098;-49
2021/06/21 10:41:09;;;;;;;10.63;7.93;;;;;;;32.08;nan;100603.34;5057810;28;20471;-49
2021/06/21 10:43:48;;;;;;;9.75;8.35;;;;;;;32.24;nan;100605.69;5063224;28;20031;-50
2021/06/21 10:46:14;;;;;;;8.23;7.38;;;;;;;32.22;nan;100608.09;5060490;28;20032;-51
2021/06/21 10:49:03;;;;;;;8.63;6.43;;;;;;;32.95;nan;100600.75;5058659;28;20063;-52
2021/06/21 10:51:37;;;;;;;10.77;6.20;;;;;;;33.19;nan;100610.13;5064285;28;20402;-47
2021/06/21 10:54:05;;;;;;;11.30;7.03;;;;;;;33.44;nan;100598.91;5062233;28;20048;-48
2021/06/21 10:56:44;;;;;;;11.32;7.50;;;;;;;33.20;nan;100605.38;5059792;28;20076;-50
2021/06/21 10:59:17;;;;;;;11.25;8.00;;;;;;;33.23;nan;100610.94;5062032;28;20494;-49
2021/06/21 11:01:45;;;;;;;12.32;7.35;;;;;;;33.42;nan;100606.09;5058662;28;20044;-50
2021/06/21 11:04:11;;;;;;;10.57;6.63;;;;;;;33.68;nan;100597.13;5061691;28;20430;-50
2021/06/21 11:06:38;;;;;;;8.98;6.90;;;;;;;33.94;nan;100591.00;5060795;28;20112;-51
2021/06/21 11:09:05;;;;;;;12.95;7.25;;;;;;;33.87;nan;100590.25;5060353;28;20036;-51
2021/06/21 11:11:37;;;;;;;10.65;6.57;;;;;;;33.03;nan;100590.41;5075679;28;20060;-50
2021/06/21 11:14:16;;;;;;;11.20;6.15;;;;;;;33.03;nan;100584.84;5058646;28;20453;-48
2021/06/21 11:16:44;;;;;;;9.30;6.85;;;;;;;33.77;nan;100588.34;5054931;28;20138;-51
2021/06/21 11:19:20;;;;;;;10.05;6.43;;;;;;;33.25;nan;100575.22;5060214;28;20023;-52
2021/06/21 11:21:56;;;;;;;9.85;6.95;;;;;;;33.56;nan;100578.97;5062535;28;20108;-49
2021/06/21 11:24:42;;;;;;;13.07;8.18;;;;;;;34.11;nan;100580.91;5060124;28;20033;-52
2021/06/21 11:27:41;;;;;;;11.10;8.95;;;;;;;34.37;nan;100581.44;5064418;28;20559;-50
2021/06/21 11:30:21;;;;;;;17.10;10.00;;;;;;;33.37;nan;100576.72;5068135;28;20488;-50
2021/06/21 11:33:01;;;;;;;10.65;9.05;;;;;;;33.39;nan;100579.91;5061495;28;20024;-50
2021/06/21 11:35:54;;;;;;;12.45;9.70;;;;;;;33.16;nan;100566.53;5064496;28;20029;-49